Time;durP1;ratioP1;P1;durP2;ratioP2;P2;SDS_P1;SDS_P2;PMS_P1;PMS_P2;Temp;Humidity;BMP_temperature;BMP_pressure;BME280_temperature;BME280_humidity;BME280_pressure;Samples;Min_cycle;Max_cycle;Signal;HPM_P1;HPM_P2
2023/05/23 00:02:21;;;;;;;;;;;;;;;16.33;100.00;95330.78;10476582;28;1878;-71
2023/05/23 00:07:25;;;;;;;;;;;;;;;16.31;100.00;95328.38;10481030;28;1877;-70
2023/05/23 00:12:28;;;;;;;;;;;;;;;16.24;100.00;95332.72;10481981;28;2079;-72
2023/05/23 00:17:30;;;;;;;;;;;;;;;16.30;100.00;95331.44;10482883;28;2013;-70
2023/05/23 00:22:33;;;;;;;;;;;;;;;16.36;100.00;95341.00;10482801;28;1798;-70
2023/05/23 00:27:36;;;;;;;;;;;;;;;16.39;100.00;95338.44;10473867;28;1957;-70
2023/05/23 00:32:38;;;;;;;;;;;;;;;16.42;100.00;95337.81;10478101;28;1823;-74
2023/05/23 00:37:41;;;;;;;;;;;;;;;16.49;100.00;95334.59;10477152;28;1981;-72
2023/05/23 00:42:43;;;;;;;;;;;;;;;16.48;100.00;95325.66;10477098;28;4480;-71
2023/05/23 00:47:45;;;;;;;;;;;;;;;16.51;100.00;95337.78;10479676;28;1924;-71
2023/05/23 00:52:48;;;;;;;;;;;;;;;16.49;100.00;95327.25;10484035;28;1975;-71
2023/05/23 00:57:53;;;;;;;;;;;;;;;16.47;100.00;95331.38;10481477;28;1988;-72
2023/05/23 01:02:55;;;;;;;;;;;;;;;16.47;100.00;95342.25;10482292;28;1992;-71
2023/05/23 01:07:58;;;;;;;;;;;;;;;16.49;100.00;95338.09;10472943;28;2281;-71
2023/05/23 01:13:03;;;;;;;;;;;;;;;16.56;100.00;95339.53;10472550;28;2211;-71
2023/05/23 01:18:07;;;;;;;;;;;;;;;16.48;100.00;95338.44;10476627;28;2266;-72
2023/05/23 01:23:10;;;;;;;;;;;;;;;16.37;100.00;95340.66;10474214;28;2318;-72
2023/05/23 01:28:13;;;;;;;;;;;;;;;16.41;100.00;95352.50;10508764;28;2007;-73
2023/05/23 01:33:16;;;;;;;;;;;;;;;16.34;100.00;95359.50;10472840;28;2663;-75
2023/05/23 01:38:18;;;;;;;;;;;;;;;16.37;100.00;95350.72;10477306;28;1947;-71
2023/05/23 01:43:21;;;;;;;;;;;;;;;16.24;100.00;95360.63;10475006;28;4536;-70
2023/05/23 01:48:24;;;;;;;;;;;;;;;16.15;100.00;95362.53;10483209;28;1908;-70
2023/05/23 01:53:26;;;;;;;;;;;;;;;16.19;100.00;95368.91;10475773;28;1936;-71
2023/05/23 01:58:29;;;;;;;;;;;;;;;16.18;100.00;95370.81;10475598;28;1976;-72
2023/05/23 02:03:32;;;;;;;;;;;;;;;16.10;100.00;95373.53;10473564;28;2015;-72
2023/05/23 02:08:34;;;;;;;;;;;;;;;16.08;100.00;95373.03;10479789;28;1952;-71
2023/05/23 02:13:37;;;;;;;;;;;;;;;16.09;100.00;95378.13;10474981;28;2048;-71
2023/05/23 02:18:40;;;;;;;;;;;;;;;16.11;100.00;95378.66;10479306;28;2253;-73
2023/05/23 02:23:42;;;;;;;;;;;;;;;16.08;100.00;95379.25;10473213;28;1999;-70
2023/05/23 02:28:45;;;;;;;;;;;;;;;16.04;100.00;95372.09;10471399;28;1983;-70
2023/05/23 02:33:48;;;;;;;;;;;;;;;15.93;100.00;95380.53;10473268;28;2058;-72
2023/05/23 02:38:51;;;;;;;;;;;;;;;15.79;100.00;95379.88;10479927;28;1949;-70
2023/05/23 02:43:53;;;;;;;;;;;;;;;15.67;100.00;95395.94;10482340;28;4465;-70
2023/05/23 02:48:55;;;;;;;;;;;;;;;15.54;100.00;95399.53;10481039;28;1948;-71
2023/05/23 02:53:58;;;;;;;;;;;;;;;15.40;100.00;95402.38;10473634;28;1971;-70
2023/05/23 02:59:00;;;;;;;;;;;;;;;15.34;100.00;95409.03;10466340;28;2256;-71
2023/05/23 03:04:03;;;;;;;;;;;;;;;15.33;100.00;95402.81;10477740;28;2031;-71
2023/05/23 03:09:06;;;;;;;;;;;;;;;15.35;100.00;95407.91;10477410;28;2059;-71
2023/05/23 03:14:09;;;;;;;;;;;;;;;15.26;100.00;95407.06;10475913;28;2118;-72
2023/05/23 03:19:11;;;;;;;;;;;;;;;15.29;100.00;95406.47;10477400;28;2276;-71
2023/05/23 03:24:14;;;;;;;;;;;;;;;15.28;100.00;95416.50;10475364;28;2207;-71
2023/05/23 03:29:17;;;;;;;;;;;;;;;15.32;100.00;95413.94;10470589;28;2276;-71
2023/05/23 03:34:22;;;;;;;;;;;;;;;15.33;100.00;95420.94;10473223;28;1968;-71
2023/05/23 03:39:25;;;;;;;;;;;;;;;15.30;100.00;95419.69;10481192;28;4437;-71
2023/05/23 03:44:27;;;;;;;;;;;;;;;15.28;100.00;95421.13;10478469;28;2042;-72
2023/05/23 03:49:30;;;;;;;;;;;;;;;15.21;100.00;95426.19;10506832;28;2044;-76
2023/05/23 03:54:32;;;;;;;;;;;;;;;15.18;100.00;95422.16;10478883;28;1947;-73
2023/05/23 03:59:35;;;;;;;;;;;;;;;15.16;100.00;95429.00;10478343;28;1960;-71
2023/05/23 04:04:38;;;;;;;;;;;;;;;15.19;100.00;95428.38;10480673;28;2061;-71
2023/05/23 04:09:41;;;;;;;;;;;;;;;15.22;100.00;95430.47;10481043;28;1983;-70
2023/05/23 04:14:43;;;;;;;;;;;;;;;15.25;100.00;95432.56;10484072;28;2117;-71
2023/05/23 04:19:46;;;;;;;;;;;;;;;15.49;100.00;95430.28;10481483;28;1940;-71
2023/05/23 04:24:49;;;;;;;;;;;;;;;15.68;100.00;95441.69;10479452;28;1945;-72
2023/05/23 04:29:51;;;;;;;;;;;;;;;15.90;100.00;95448.94;10481307;28;2023;-71
2023/05/23 04:34:55;;;;;;;;;;;;;;;15.98;100.00;95450.06;10480534;28;2000;-71
2023/05/23 04:39:58;;;;;;;;;;;;;;;15.96;100.00;95446.84;10475322;28;4467;-70
2023/05/23 04:45:02;;;;;;;;;;;;;;;15.94;100.00;95449.09;10478424;28;1963;-68
2023/05/23 04:50:05;;;;;;;;;;;;;;;16.04;100.00;95448.81;10475030;28;1983;-70
2023/05/23 04:55:08;;;;;;;;;;;;;;;16.10;100.00;95452.19;10480526;28;1997;-72
2023/05/23 05:00:11;;;;;;;;;;;;;;;16.27;100.00;95462.22;10475544;28;2135;-75
2023/05/23 05:05:13;;;;;;;;;;;;;;;16.30;100.00;95458.91;10476348;28;1936;-72
2023/05/23 05:10:16;;;;;;;;;;;;;;;16.43;100.00;95463.38;10477653;28;1960;-70
2023/05/23 05:15:19;;;;;;;;;;;;;;;16.84;100.00;95465.63;10473838;28;1936;-71
2023/05/23 05:20:21;;;;;;;;;;;;;;;17.30;100.00;95455.97;10476535;28;1893;-73
2023/05/23 05:25:24;;;;;;;;;;;;;;;17.36;100.00;95448.44;10475294;28;1960;-70
2023/05/23 05:30:26;;;;;;;;;;;;;;;17.26;100.00;95449.59;10475260;28;2023;-77
2023/05/23 05:35:28;;;;;;;;;;;;;;;18.13;100.00;95447.31;10474714;28;2277;-73
2023/05/23 05:40:31;;;;;;;;;;;;;;;18.89;100.00;95441.69;10475642;28;4327;-73
2023/05/23 05:45:33;;;;;;;;;;;;;;;18.62;100.00;95450.34;10483840;28;1975;-71
2023/05/23 05:50:36;;;;;;;;;;;;;;;18.94;100.00;95461.66;10480550;28;2111;-73
2023/05/23 05:55:38;;;;;;;;;;;;;;;18.94;100.00;95457.00;10479654;28;2199;-73
2023/05/23 06:00:42;;;;;;;;;;;;;;;18.74;100.00;95458.59;10474679;28;1881;-73
2023/05/23 06:05:44;;;;;;;;;;;;;;;19.15;100.00;95471.38;10478581;28;2118;-73
2023/05/23 06:10:47;;;;;;;;;;;;;;;19.92;100.00;95465.44;10477303;28;2031;-76
2023/05/23 06:15:49;;;;;;;;;;;;;;;20.02;100.00;95456.78;10469928;28;1983;-73
2023/05/23 06:20:52;;;;;;;;;;;;;;;19.57;100.00;95465.00;10475153;28;1964;-73
2023/05/23 06:25:55;;;;;;;;;;;;;;;18.82;100.00;95465.91;10478770;28;1912;-74
2023/05/23 06:30:57;;;;;;;;;;;;;;;19.07;100.00;95477.69;10474148;28;1896;-73
2023/05/23 06:35:59;;;;;;;;;;;;;;;19.61;100.00;95474.16;10468479;28;1979;-75
2023/05/23 06:41:02;;;;;;;;;;;;;;;20.05;100.00;95480.66;10469071;28;4457;-71
2023/05/23 06:46:05;;;;;;;;;;;;;;;20.06;100.00;95482.25;10479371;28;1947;-72
2023/05/23 06:51:09;;;;;;;;;;;;;;;19.92;100.00;95484.53;10476288;28;2236;-72
2023/05/23 06:56:11;;;;;;;;;;;;;;;20.02;100.00;95483.28;10468922;28;1916;-71
2023/05/23 07:01:14;;;;;;;;;;;;;;;19.78;100.00;95486.75;10476461;28;2226;-73
2023/05/23 07:06:17;;;;;;;;;;;;;;;20.39;100.00;95487.56;10478758;28;2000;-75
2023/05/23 07:11:19;;;;;;;;;;;;;;;21.01;100.00;95478.13;10477577;28;1966;-73
2023/05/23 07:16:22;;;;;;;;;;;;;;;21.35;100.00;95477.91;10468622;28;1975;-73
2023/05/23 07:21:24;;;;;;;;;;;;;;;20.59;100.00;95496.00;10473171;28;1980;-73
2023/05/23 07:26:27;;;;;;;;;;;;;;;20.26;100.00;95499.66;10468513;28;2007;-73
2023/05/23 07:31:29;;;;;;;;;;;;;;;19.52;100.00;95506.13;10475099;28;2067;-74
2023/05/23 07:36:34;;;;;;;;;;;;;;;20.05;100.00;95504.44;10481041;28;2051;-74
2023/05/23 07:41:37;;;;;;;;;;;;;;;20.73;100.00;95502.66;10475747;28;4390;-73
2023/05/23 07:46:39;;;;;;;;;;;;;;;20.46;100.00;95506.94;10473158;28;1970;-73
2023/05/23 07:51:42;;;;;;;;;;;;;;;20.46;100.00;95497.94;10475546;28;2264;-73
2023/05/23 07:56:44;;;;;;;;;;;;;;;21.12;100.00;95499.47;10472491;28;1995;-72
2023/05/23 08:01:49;;;;;;;;;;;;;;;20.03;100.00;95507.47;10470097;28;1936;-73
2023/05/23 08:06:52;;;;;;;;;;;;;;;19.63;100.00;95515.50;10470310;28;1885;-72
2023/05/23 08:12:07;;;;;;;;;;;;;;;20.02;100.00;95513.28;10475959;28;1876;-73
2023/05/23 08:17:09;;;;;;;;;;;;;;;19.96;100.00;95520.88;10471536;28;2074;-73
2023/05/23 08:22:12;;;;;;;;;;;;;;;20.41;100.00;95522.72;10478461;28;1995;-74
2023/05/23 08:27:14;;;;;;;;;;;;;;;20.06;100.00;95525.13;10481358;28;1940;-76
2023/05/23 08:32:16;;;;;;;;;;;;;;;20.49;100.00;95514.44;10481004;28;1955;-73
2023/05/23 08:37:19;;;;;;;;;;;;;;;21.01;100.00;95519.13;10479716;28;1971;-72
2023/05/23 08:42:21;;;;;;;;;;;;;;;21.14;100.00;95524.56;10481178;28;4473;-72
2023/05/23 08:47:24;;;;;;;;;;;;;;;21.33;100.00;95532.94;10478417;28;2282;-72
2023/05/23 08:52:26;;;;;;;;;;;;;;;21.61;100.00;95518.44;10484098;28;2030;-72
2023/05/23 08:57:29;;;;;;;;;;;;;;;20.80;100.00;95540.31;10480990;28;1960;-72
2023/05/23 09:02:32;;;;;;;;;;;;;;;21.03;100.00;95533.22;10475958;28;1967;-73
2023/05/23 09:07:34;;;;;;;;;;;;;;;21.53;100.00;95534.66;10483190;28;1972;-73
2023/05/23 09:12:37;;;;;;;;;;;;;;;21.98;100.00;95538.97;10476482;28;1948;-73
2023/05/23 09:17:39;;;;;;;;;;;;;;;21.48;100.00;95545.06;10486170;28;2022;-72
2023/05/23 09:22:42;;;;;;;;;;;;;;;21.67;100.00;95547.13;10479605;28;1932;-73
2023/05/23 09:27:44;;;;;;;;;;;;;;;21.64;100.00;95550.56;10476223;28;2011;-73
2023/05/23 09:32:49;;;;;;;;;;;;;;;21.61;100.00;95545.78;10481549;28;1846;-73
2023/05/23 09:37:54;;;;;;;;;;;;;;;21.45;100.00;95543.81;10474014;28;2091;-72
2023/05/23 09:42:57;;;;;;;;;;;;;;;21.54;100.00;95544.44;10474558;28;4497;-73
2023/05/23 09:48:00;;;;;;;;;;;;;;;20.93;100.00;95550.13;10477729;28;1953;-73
2023/05/23 09:53:02;;;;;;;;;;;;;;;20.10;100.00;95550.56;10473020;28;1857;-72
2023/05/23 09:58:05;;;;;;;;;;;;;;;19.97;100.00;95553.28;10479200;28;1979;-72
2023/05/23 10:03:09;;;;;;;;;;;;;;;19.89;100.00;95559.63;10474985;28;1837;-74
2023/05/23 10:08:11;;;;;;;;;;;;;;;20.10;100.00;95556.81;10481183;28;1897;-73
2023/05/23 10:13:14;;;;;;;;;;;;;;;19.83;100.00;95550.06;10477471;28;2027;-73
2023/05/23 10:18:16;;;;;;;;;;;;;;;20.30;100.00;95555.16;10471523;28;2011;-72
2023/05/23 10:23:19;;;;;;;;;;;;;;;20.57;100.00;95545.50;10479529;28;1995;-71
2023/05/23 10:28:21;;;;;;;;;;;;;;;20.83;100.00;95539.66;10501113;28;1822;-73
2023/05/23 10:33:24;;;;;;;;;;;;;;;22.19;100.00;95540.66;10474550;28;1914;-72
2023/05/23 10:38:26;;;;;;;;;;;;;;;21.85;100.00;95537.44;10476061;28;2293;-73
2023/05/23 10:43:29;;;;;;;;;;;;;;;20.69;100.00;95539.22;10471229;28;4521;-75
2023/05/23 10:48:32;;;;;;;;;;;;;;;20.34;100.00;95536.16;10477721;28;1754;-73
2023/05/23 10:53:34;;;;;;;;;;;;;;;22.24;100.00;95529.47;10473858;28;1500;-73
2023/05/23 10:58:37;;;;;;;;;;;;;;;22.31;100.00;95521.41;10479177;28;1987;-73
2023/05/23 11:03:39;;;;;;;;;;;;;;;22.26;100.00;95530.69;10474261;28;1857;-73
2023/05/23 11:08:44;;;;;;;;;;;;;;;22.82;100.00;95516.72;10475072;28;1905;-73
2023/05/23 11:13:50;;;;;;;;;;;;;;;23.95;100.00;95522.94;10473188;28;1868;-73
2023/05/23 11:18:52;;;;;;;;;;;;;;;23.58;100.00;95513.59;10475777;28;1903;-73
2023/05/23 11:23:55;;;;;;;;;;;;;;;23.04;100.00;95503.53;10476194;28;1842;-73
2023/05/23 11:28:58;;;;;;;;;;;;;;;23.32;100.00;95495.84;10466996;28;1889;-73
2023/05/23 11:34:00;;;;;;;;;;;;;;;23.88;100.00;95500.84;10468033;28;1926;-71
2023/05/23 11:39:03;;;;;;;;;;;;;;;22.93;100.00;95500.53;10470640;28;2079;-72
2023/05/23 11:44:05;;;;;;;;;;;;;;;23.46;100.00;95500.81;10471541;28;4622;-73
2023/05/23 11:49:08;;;;;;;;;;;;;;;23.58;100.00;95502.63;10480234;28;1897;-74
2023/05/23 11:54:12;;;;;;;;;;;;;;;23.10;100.00;95489.16;10474846;28;1921;-71
2023/05/23 11:59:15;;;;;;;;;;;;;;;23.47;100.00;95483.19;10481415;28;1941;-73
2023/05/23 12:04:18;;;;;;;;;;;;;;;23.91;100.00;95477.34;10480293;28;1841;-73
2023/05/23 12:09:20;;;;;;;;;;;;;;;23.76;100.00;95489.25;10483687;28;1952;-72
2023/05/23 12:14:23;;;;;;;;;;;;;;;22.53;100.00;95476.16;10478634;28;2059;-73
2023/05/23 12:19:26;;;;;;;;;;;;;;;22.69;100.00;95478.84;10483641;28;1913;-72
2023/05/23 12:24:29;;;;;;;;;;;;;;;23.45;100.00;95482.78;10487143;28;1917;-72
2023/05/23 12:29:31;;;;;;;;;;;;;;;23.23;100.00;95486.28;10481295;28;2084;-73
2023/05/23 12:34:36;;;;;;;;;;;;;;;22.22;100.00;95498.91;10482876;28;1891;-72
2023/05/23 12:39:39;;;;;;;;;;;;;;;21.85;100.00;95507.34;10479509;28;4510;-72
2023/05/23 12:44:42;;;;;;;;;;;;;;;22.48;100.00;95499.13;10479838;28;1936;-73
2023/05/23 12:49:45;;;;;;;;;;;;;;;22.58;100.00;95498.56;10478728;28;2010;-74
2023/05/23 12:54:48;;;;;;;;;;;;;;;23.85;100.00;95489.78;10473151;28;1861;-72
2023/05/23 12:59:50;;;;;;;;;;;;;;;22.11;100.00;95493.97;10479060;28;2003;-72
2023/05/23 13:04:52;;;;;;;;;;;;;;;21.27;100.00;95509.69;10475171;28;1893;-71
2023/05/23 13:09:55;;;;;;;;;;;;;;;21.53;100.00;95520.97;10478859;28;1870;-71
2023/05/23 13:14:57;;;;;;;;;;;;;;;21.84;100.00;95501.09;10474682;28;1873;-72
2023/05/23 13:20:00;;;;;;;;;;;;;;;22.22;100.00;95494.22;10476021;28;1930;-73
2023/05/23 13:25:03;;;;;;;;;;;;;;;21.93;100.00;95489.97;10472913;28;2018;-72
2023/05/23 13:30:06;;;;;;;;;;;;;;;22.02;100.00;95484.31;10477145;28;1969;-74
2023/05/23 13:35:08;;;;;;;;;;;;;;;21.95;100.00;95482.22;10475250;28;1889;-72
2023/05/23 13:40:11;;;;;;;;;;;;;;;22.81;100.00;95473.25;10479335;28;4469;-74
2023/05/23 13:45:13;;;;;;;;;;;;;;;22.96;100.00;95466.91;10482413;28;1834;-74
2023/05/23 13:50:16;;;;;;;;;;;;;;;22.41;100.00;95460.63;10477649;28;1842;-73
2023/05/23 13:55:18;;;;;;;;;;;;;;;21.96;100.00;95475.59;10481208;28;1754;-72
2023/05/23 14:00:21;;;;;;;;;;;;;;;22.73;100.00;95469.56;10479934;28;1959;-73
2023/05/23 14:05:24;;;;;;;;;;;;;;;22.98;100.00;95458.34;10481583;28;1765;-71
2023/05/23 14:10:28;;;;;;;;;;;;;;;22.92;100.00;95466.88;10471929;28;1826;-72
2023/05/23 14:15:30;;;;;;;;;;;;;;;22.54;100.00;95478.53;10476801;28;1865;-72
2023/05/23 14:20:35;;;;;;;;;;;;;;;22.72;100.00;95475.41;10475133;28;1914;-73
2023/05/23 14:25:38;;;;;;;;;;;;;;;21.87;100.00;95480.44;10467732;28;2033;-72
2023/05/23 14:30:40;;;;;;;;;;;;;;;22.12;100.00;95476.38;10475464;28;1881;-75
2023/05/23 14:35:43;;;;;;;;;;;;;;;22.52;100.00;95469.91;10472452;28;1893;-73
2023/05/23 14:40:46;;;;;;;;;;;;;;;22.30;100.00;95473.28;10474802;28;4434;-72
2023/05/23 14:45:48;;;;;;;;;;;;;;;21.66;100.00;95479.91;10478672;28;1837;-72
2023/05/23 14:50:50;;;;;;;;;;;;;;;21.23;100.00;95493.19;10495654;28;1960;-73
2023/05/23 14:55:53;;;;;;;;;;;;;;;20.90;100.00;95490.69;10473821;28;2194;-73
2023/05/23 15:00:55;;;;;;;;;;;;;;;21.36;100.00;95499.41;10483681;28;1910;-72
2023/05/23 15:05:57;;;;;;;;;;;;;;;21.69;100.00;95490.13;10475834;28;1870;-71
2023/05/23 15:11:00;;;;;;;;;;;;;;;22.18;100.00;95498.81;10477812;28;1853;-73
2023/05/23 15:16:02;;;;;;;;;;;;;;;21.57;100.00;95501.94;10474109;28;2035;-72
2023/05/23 15:21:05;;;;;;;;;;;;;;;21.04;100.00;95506.69;10476380;28;2163;-73
2023/05/23 15:26:07;;;;;;;;;;;;;;;20.96;100.00;95513.91;10472947;28;1864;-73
2023/05/23 15:31:10;;;;;;;;;;;;;;;20.79;100.00;95517.69;10476787;28;1849;-72
2023/05/23 15:36:13;;;;;;;;;;;;;;;21.02;100.00;95498.84;10481389;28;1920;-73
2023/05/23 15:41:15;;;;;;;;;;;;;;;20.71;100.00;95510.41;10484644;28;4476;-72
2023/05/23 15:46:18;;;;;;;;;;;;;;;20.70;100.00;95519.75;10504792;28;1847;-71
2023/05/23 15:51:20;;;;;;;;;;;;;;;20.84;100.00;95522.13;10485310;28;1854;-72
2023/05/23 15:56:22;;;;;;;;;;;;;;;20.91;100.00;95518.81;10489180;28;1900;-73
2023/05/23 16:01:25;;;;;;;;;;;;;;;20.99;100.00;95526.06;10487390;28;1936;-73
2023/05/23 16:06:27;;;;;;;;;;;;;;;20.56;100.00;95532.19;10486189;28;1850;-74
2023/05/23 16:11:30;;;;;;;;;;;;;;;21.03;100.00;95530.50;10478912;28;1941;-72
2023/05/23 16:16:32;;;;;;;;;;;;;;;20.62;100.00;95544.47;10485201;28;2159;-72
2023/05/23 16:21:35;;;;;;;;;;;;;;;20.25;100.00;95541.72;10476521;28;2039;-73
2023/05/23 16:26:38;;;;;;;;;;;;;;;20.28;100.00;95553.88;10482205;28;1874;-73
2023/05/23 16:31:40;;;;;;;;;;;;;;;19.85;100.00;95547.81;10480988;28;1841;-72
2023/05/23 16:36:43;;;;;;;;;;;;;;;19.84;100.00;95546.22;10475504;28;1813;-72
2023/05/23 16:41:46;;;;;;;;;;;;;;;19.52;100.00;95552.47;10473413;28;1979;-74
2023/05/23 16:46:48;;;;;;;;;;;;;;;19.12;100.00;95552.97;10481470;28;1810;-71
2023/05/23 16:51:51;;;;;;;;;;;;;;;18.95;100.00;95548.47;10472458;28;1905;-77
2023/05/23 16:56:53;;;;;;;;;;;;;;;18.92;100.00;95561.97;10487009;28;1889;-75
2023/05/23 17:01:56;;;;;;;;;;;;;;;18.82;100.00;95546.81;10483605;28;1967;-75
2023/05/23 17:06:58;;;;;;;;;;;;;;;18.46;100.00;95552.78;10485417;28;1830;-78
2023/05/23 17:12:01;;;;;;;;;;;;;;;18.18;100.00;95552.44;10478931;28;2000;-76
2023/05/23 17:17:04;;;;;;;;;;;;;;;18.40;100.00;95565.78;10483839;28;1853;-75
2023/05/23 17:22:06;;;;;;;;;;;;;;;18.32;100.00;95570.16;10482792;28;1950;-75
2023/05/23 17:27:09;;;;;;;;;;;;;;;17.97;100.00;95582.28;10481484;28;1997;-73
2023/05/23 17:32:11;;;;;;;;;;;;;;;17.84;100.00;95578.66;10485562;28;1942;-73
2023/05/23 17:37:15;;;;;;;;;;;;;;;17.81;100.00;95574.66;10471018;28;1850;-74
2023/05/23 17:42:17;;;;;;;;;;;;;;;17.58;100.00;95596.91;10475367;28;4451;-72
2023/05/23 17:47:20;;;;;;;;;;;;;;;17.53;100.00;95589.72;10471440;28;1842;-73
2023/05/23 17:52:23;;;;;;;;;;;;;;;17.51;100.00;95587.31;10476190;28;1988;-73
2023/05/23 17:57:25;;;;;;;;;;;;;;;17.42;100.00;95578.38;10475740;28;2177;-73
2023/05/23 18:02:28;;;;;;;;;;;;;;;17.56;100.00;95592.59;10475285;28;1860;-72
2023/05/23 18:07:30;;;;;;;;;;;;;;;17.54;100.00;95599.44;10478483;28;2182;-73
2023/05/23 18:12:33;;;;;;;;;;;;;;;17.35;100.00;95596.28;10474448;28;1906;-72
2023/05/23 18:17:35;;;;;;;;;;;;;;;17.42;100.00;95596.59;10475808;28;1920;-72
2023/05/23 18:22:40;;;;;;;;;;;;;;;17.22;100.00;95601.56;10476363;28;1883;-71
2023/05/23 18:27:42;;;;;;;;;;;;;;;17.07;100.00;95607.47;10472276;28;1830;-72
2023/05/23 18:32:45;;;;;;;;;;;;;;;17.10;100.00;95608.75;10475332;28;1927;-72
2023/05/23 18:37:48;;;;;;;;;;;;;;;17.07;100.00;95621.03;10477289;28;1966;-76
2023/05/23 18:42:50;;;;;;;;;;;;;;;16.93;100.00;95617.69;10469850;28;4482;-73
2023/05/23 18:47:53;;;;;;;;;;;;;;;16.95;100.00;95618.97;10475517;28;1873;-72
2023/05/23 18:52:56;;;;;;;;;;;;;;;16.93;100.00;95631.25;10476607;28;1926;-72
2023/05/23 18:57:58;;;;;;;;;;;;;;;16.84;100.00;95644.81;10473343;28;1909;-72
2023/05/23 19:03:01;;;;;;;;;;;;;;;16.69;100.00;95656.09;10475029;28;2322;-72
2023/05/23 19:08:04;;;;;;;;;;;;;;;16.65;100.00;95655.91;10464936;28;1959;-71
2023/05/23 19:13:06;;;;;;;;;;;;;;;16.54;100.00;95661.91;10469219;28;1858;-73
2023/05/23 19:18:09;;;;;;;;;;;;;;;16.46;100.00;95677.84;10471458;28;1918;-73
2023/05/23 19:23:11;;;;;;;;;;;;;;;16.37;100.00;95685.16;10469259;28;1842;-73
2023/05/23 19:28:15;;;;;;;;;;;;;;;16.25;100.00;95687.66;10468141;28;1884;-73
2023/05/23 19:33:17;;;;;;;;;;;;;;;16.11;100.00;95697.81;10468596;28;1834;-71
2023/05/23 19:38:20;;;;;;;;;;;;;;;15.94;100.00;95695.78;10467218;28;2035;-72
2023/05/23 19:43:22;;;;;;;;;;;;;;;15.91;100.00;95699.13;10471073;28;4442;-72
2023/05/23 19:48:25;;;;;;;;;;;;;;;15.80;100.00;95693.13;10472496;28;1798;-73
2023/05/23 19:53:27;;;;;;;;;;;;;;;15.67;100.00;95705.63;10474250;28;1774;-72
2023/05/23 19:58:30;;;;;;;;;;;;;;;15.53;100.00;95704.88;10468953;28;2224;-73
2023/05/23 20:03:32;;;;;;;;;;;;;;;15.58;100.00;95712.06;10476601;28;1941;-72
2023/05/23 20:08:35;;;;;;;;;;;;;;;15.44;100.00;95712.09;10471010;28;1881;-73
2023/05/23 20:13:37;;;;;;;;;;;;;;;15.35;100.00;95708.53;10471616;28;1830;-72
2023/05/23 20:18:40;;;;;;;;;;;;;;;15.30;100.00;95716.75;10474566;28;1913;-72
2023/05/23 20:23:43;;;;;;;;;;;;;;;15.24;100.00;95723.41;10472645;28;1915;-73
2023/05/23 20:28:46;;;;;;;;;;;;;;;15.20;100.00;95716.97;10484859;28;1913;-71
2023/05/23 20:33:48;;;;;;;;;;;;;;;15.12;100.00;95729.31;10470930;28;2096;-74
2023/05/23 20:38:52;;;;;;;;;;;;;;;15.10;100.00;95726.13;10483128;28;1976;-72
2023/05/23 20:43:54;;;;;;;;;;;;;;;14.99;100.00;95743.69;10476795;28;4536;-74
2023/05/23 20:48:58;;;;;;;;;;;;;;;14.95;100.00;95743.50;10486017;28;1822;-74
2023/05/23 20:54:02;;;;;;;;;;;;;;;14.95;100.00;95756.22;10478428;28;1912;-72
2023/05/23 20:59:04;;;;;;;;;;;;;;;14.82;100.00;95746.97;10478128;28;2162;-72
2023/05/23 21:04:06;;;;;;;;;;;;;;;14.63;100.00;95751.69;10480877;28;2013;-73
2023/05/23 21:09:10;;;;;;;;;;;;;;;14.53;100.00;95748.09;10479446;28;1921;-72
2023/05/23 21:14:12;;;;;;;;;;;;;;;14.40;100.00;95758.84;10481952;28;1813;-73
2023/05/23 21:19:15;;;;;;;;;;;;;;;14.23;100.00;95752.09;10480566;28;1914;-72
2023/05/23 21:24:17;;;;;;;;;;;;;;;14.14;100.00;95761.22;10479807;28;1837;-73
2023/05/23 21:29:19;;;;;;;;;;;;;;;14.11;100.00;95762.59;10472349;28;2070;-72
2023/05/23 21:34:22;;;;;;;;;;;;;;;13.97;100.00;95765.25;10476107;28;2004;-72
2023/05/23 21:39:25;;;;;;;;;;;;;;;13.89;100.00;95775.94;10478422;28;4547;-73
2023/05/23 21:44:44;;;;;;;;;;;;;;;13.77;100.00;95789.88;10483378;28;2037;-71
2023/05/23 21:49:47;;;;;;;;;;;;;;;13.66;100.00;95788.41;10480651;28;1810;-71
2023/05/23 21:54:50;;;;;;;;;;;;;;;13.61;100.00;95802.00;10480080;28;2144;-73
2023/05/23 21:59:52;;;;;;;;;;;;;;;13.43;100.00;95807.13;10477347;28;1980;-73
2023/05/23 22:04:55;;;;;;;;;;;;;;;13.30;100.00;95813.22;10471995;28;1822;-72
2023/05/23 22:09:57;;;;;;;;;;;;;;;13.18;100.00;95813.59;10480485;28;2016;-72
2023/05/23 22:14:59;;;;;;;;;;;;;;;13.16;100.00;95813.06;10476913;28;1960;-72
2023/05/23 22:20:03;;;;;;;;;;;;;;;13.24;100.00;95819.78;10472488;28;2014;-73
2023/05/23 22:25:06;;;;;;;;;;;;;;;13.14;100.00;95828.75;10478046;28;1714;-72
2023/05/23 22:30:09;;;;;;;;;;;;;;;13.08;100.00;95831.81;10467333;28;1897;-71
2023/05/23 22:35:11;;;;;;;;;;;;;;;13.04;100.00;95836.16;10471297;28;1957;-74
2023/05/23 22:40:14;;;;;;;;;;;;;;;12.96;100.00;95824.13;10476733;28;4548;-72
2023/05/23 22:45:16;;;;;;;;;;;;;;;12.92;100.00;95829.28;10477022;28;1996;-72
2023/05/23 22:50:18;;;;;;;;;;;;;;;12.81;100.00;95833.19;10478246;28;2058;-71
2023/05/23 22:55:21;;;;;;;;;;;;;;;12.82;100.00;95828.59;10474912;28;1551;-72
2023/05/23 23:00:23;;;;;;;;;;;;;;;12.83;100.00;95830.19;10481539;28;1883;-73
2023/05/23 23:05:26;;;;;;;;;;;;;;;12.80;100.00;95815.41;10476788;28;1977;-73
2023/05/23 23:10:28;;;;;;;;;;;;;;;12.65;100.00;95815.53;10473949;28;1885;-72
2023/05/23 23:15:32;;;;;;;;;;;;;;;12.58;100.00;95815.06;10475117;28;1855;-73
2023/05/23 23:20:35;;;;;;;;;;;;;;;12.43;100.00;95814.13;10469085;28;1972;-74
2023/05/23 23:25:39;;;;;;;;;;;;;;;12.35;100.00;95809.38;10474713;28;2050;-71
2023/05/23 23:30:42;;;;;;;;;;;;;;;12.33;100.00;95816.91;10482078;28;1887;-72
2023/05/23 23:35:47;;;;;;;;;;;;;;;12.15;100.00;95820.31;10470717;28;1844;-72
2023/05/23 23:40:50;;;;;;;;;;;;;;;12.22;100.00;95826.19;10472793;28;4438;-71
2023/05/23 23:45:52;;;;;;;;;;;;;;;12.24;100.00;95824.03;10471771;28;2096;-71
2023/05/23 23:50:54;;;;;;;;;;;;;;;12.21;100.00;95818.38;10471289;28;1846;-73
2023/05/23 23:55:57;;;;;;;;;;;;;;;12.28;100.00;95819.69;10478326;28;1994;-72
